Time;durP1;ratioP1;P1;durP2;ratioP2;P2;SDS_P1;SDS_P2;PMS_P1;PMS_P2;Temp;Humidity;BMP_temperature;BMP_pressure;BME280_temperature;BME280_humidity;BME280_pressure;Samples;Min_cycle;Max_cycle;Signal;HPM_P1;HPM_P2
2022/12/13 00:02:00;;;;;;;23.10;15.15;;;-1.10;64.80;;;;;;4985414;28;20047;-56
2022/12/13 00:04:30;;;;;;;25.92;16.13;;;-1.10;64.80;;;;;;4984524;28;20053;-56
2022/12/13 00:07:00;;;;;;;29.15;15.70;;;-1.10;64.80;;;;;;4998258;28;20077;-54
2022/12/13 00:09:30;;;;;;;23.23;14.40;;;-1.10;64.80;;;;;;4990515;28;20039;-56
2022/12/13 00:11:56;;;;;;;30.23;16.23;;;-1.20;64.60;;;;;;4992145;28;20415;-53
2022/12/13 00:14:28;;;;;;;26.45;14.38;;;-1.20;64.60;;;;;;4997485;28;20125;-56
2022/12/13 00:16:56;;;;;;;25.17;15.95;;;-1.20;64.60;;;;;;5001256;28;20042;-54
2022/12/13 00:19:23;;;;;;;28.83;16.40;;;-1.20;64.70;;;;;;5006005;28;20046;-57
2022/12/13 00:21:50;;;;;;;27.38;15.10;;;-1.20;64.70;;;;;;4996283;28;20074;-57
2022/12/13 00:24:21;;;;;;;20.00;12.87;;;-1.10;64.80;;;;;;5003237;28;20099;-56
2022/12/13 00:26:48;;;;;;;25.95;15.25;;;-1.20;64.60;;;;;;5009265;28;20128;-57
2022/12/13 00:29:15;;;;;;;26.73;17.15;;;-1.20;64.70;;;;;;4995950;28;20458;-55
2022/12/13 00:31:46;;;;;;;29.52;17.40;;;-1.20;64.60;;;;;;4996094;28;20076;-54
2022/12/13 00:34:33;;;;;;;25.88;15.32;;;-1.20;64.60;;;;;;5001423;28;20046;-55
2022/12/13 00:37:01;;;;;;;31.50;16.70;;;-1.30;65.20;;;;;;5008804;28;20041;-54
2022/12/13 00:39:28;;;;;;;25.85;15.65;;;-1.30;64.60;;;;;;5000648;28;20042;-56
2022/12/13 00:41:55;;;;;;;28.23;16.20;;;-1.30;64.50;;;;;;5001752;28;20586;-56
2022/12/13 00:44:22;;;;;;;28.10;14.60;;;-1.30;64.50;;;;;;5002166;28;20057;-54
2022/12/13 00:46:50;;;;;;;27.20;16.13;;;-1.30;64.50;;;;;;4991462;28;20045;-54
2022/12/13 00:49:19;;;;;;;26.38;16.02;;;-1.30;64.50;;;;;;4993732;28;20562;-53
2022/12/13 00:51:50;;;;;;;24.48;15.02;;;-1.30;64.60;;;;;;5001256;28;20087;-55
2022/12/13 00:54:17;;;;;;;29.45;15.68;;;-1.30;64.60;;;;;;4988779;28;20047;-54
2022/12/13 00:56:43;;;;;;;24.92;15.23;;;-1.30;64.60;;;;;;4982707;28;20047;-55
2022/12/13 00:59:13;;;;;;;27.05;15.48;;;-1.30;64.60;;;;;;4990363;28;20473;-54
2022/12/13 01:01:42;;;;;;;27.48;15.30;;;-1.40;64.50;;;;;;4993296;28;20525;-53
2022/12/13 01:04:09;;;;;;;29.67;16.02;;;-1.40;64.50;;;;;;4992974;28;20042;-53
2022/12/13 01:06:42;;;;;;;27.48;15.15;;;-1.40;64.40;;;;;;4994026;28;20533;-53
2022/12/13 01:09:16;;;;;;;26.13;15.07;;;-1.40;64.40;;;;;;4995834;28;20041;-53
2022/12/13 01:11:43;;;;;;;24.45;14.88;;;-1.40;64.40;;;;;;4998329;28;20791;-54
2022/12/13 01:14:10;;;;;;;28.33;16.08;;;-1.40;64.40;;;;;;5014146;28;20414;-50
2022/12/13 01:16:38;;;;;;;27.73;15.35;;;-1.40;64.40;;;;;;5001967;28;20402;-54
2022/12/13 01:19:07;;;;;;;31.75;15.23;;;-1.40;64.40;;;;;;4993968;28;20045;-54
2022/12/13 01:21:38;;;;;;;24.90;13.85;;;-1.40;64.40;;;;;;5002597;28;20125;-52
2022/12/13 01:24:06;;;;;;;22.65;14.40;;;-1.50;64.40;;;;;;4976856;28;20074;-50
2022/12/13 01:26:33;;;;;;;26.80;15.38;;;-1.50;64.50;;;;;;4989842;28;20038;-55
2022/12/13 01:29:00;;;;;;;21.55;13.50;;;-1.50;64.40;;;;;;4997376;28;20073;-53
2022/12/13 01:31:26;;;;;;;27.10;15.98;;;-1.50;64.40;;;;;;5005404;28;20042;-50
2022/12/13 01:33:56;;;;;;;27.05;16.23;;;-1.50;64.40;;;;;;5013923;28;20045;-52
2022/12/13 01:36:25;;;;;;;23.90;14.45;;;-1.50;64.40;;;;;;4998378;28;20398;-51
2022/12/13 01:38:57;;;;;;;23.83;14.48;;;-1.50;64.40;;;;;;5003132;28;20045;-50
2022/12/13 01:41:27;;;;;;;24.67;13.95;;;-1.50;64.40;;;;;;5013291;28;20587;-50
2022/12/13 01:44:01;;;;;;;22.73;14.55;;;-1.50;64.40;;;;;;4984036;28;20101;-54
2022/12/13 01:46:34;;;;;;;23.65;14.90;;;-1.50;64.30;;;;;;4994046;28;20104;-54
2022/12/13 01:49:12;;;;;;;25.48;15.25;;;-1.50;64.30;;;;;;5005092;28;20042;-54
2022/12/13 01:51:57;;;;;;;21.33;13.38;;;-1.50;64.30;;;;;;5012913;28;20121;-55
2022/12/13 01:54:32;;;;;;;25.08;15.35;;;-1.50;64.80;;;;;;4998040;28;20042;-55
2022/12/13 01:57:04;;;;;;;26.80;15.55;;;-1.50;64.90;;;;;;4984643;28;20078;-57
2022/12/13 01:59:34;;;;;;;26.33;14.30;;;-1.60;64.20;;;;;;4995697;28;20045;-54
2022/12/13 02:02:01;;;;;;;25.40;13.90;;;-1.60;64.20;;;;;;5012643;28;20089;-57
2022/12/13 02:04:36;;;;;;;25.35;14.23;;;-1.60;64.20;;;;;;4992873;28;20044;-57
2022/12/13 02:07:13;;;;;;;22.95;13.35;;;-1.60;64.20;;;;;;5006153;28;20406;-55
2022/12/13 02:09:53;;;;;;;22.83;14.65;;;-1.50;64.30;;;;;;5010707;28;20498;-56
2022/12/13 02:12:27;;;;;;;26.23;13.70;;;-1.60;64.20;;;;;;5012718;28;20066;-54
2022/12/13 02:15:04;;;;;;;25.80;14.82;;;-1.60;64.10;;;;;;4981964;28;20046;-55
2022/12/13 02:17:59;;;;;;;24.88;13.95;;;-1.60;64.10;;;;;;5002512;28;20057;-54
2022/12/13 02:20:37;;;;;;;25.52;14.40;;;-1.70;64.00;;;;;;4974201;28;20045;-57
2022/12/13 02:23:19;;;;;;;23.98;13.27;;;-1.70;64.10;;;;;;4967170;28;20043;-55
2022/12/13 02:26:11;;;;;;;21.58;15.18;;;-1.70;64.00;;;;;;5001899;28;20165;-54
2022/12/13 02:29:03;;;;;;;19.98;11.30;;;-1.70;64.10;;;;;;5007824;28;20473;-53
2022/12/13 02:31:49;;;;;;;;;;;-1.70;63.90;;;;;;4977359;28;20050;-53
2022/12/13 02:34:24;;;;;;;22.63;11.52;;;-1.70;63.90;;;;;;4997331;28;20293;-56
2022/12/13 02:37:09;;;;;;;24.85;13.57;;;-1.70;64.00;;;;;;5003557;28;20046;-54
2022/12/13 02:39:52;;;;;;;19.85;12.32;;;-1.80;64.00;;;;;;5002161;28;20049;-54
2022/12/13 02:42:51;;;;;;;27.95;14.18;;;-1.80;64.00;;;;;;4987370;28;20066;-55
2022/12/13 02:45:24;;;;;;;23.90;12.73;;;-1.80;63.90;;;;;;4986961;28;20062;-54
2022/12/13 02:47:56;;;;;;;22.45;13.80;;;-1.80;64.10;;;;;;5009746;28;20084;-53
2022/12/13 02:50:30;;;;;;;23.77;15.40;;;-1.80;64.10;;;;;;5000958;28;20038;-54
2022/12/13 02:53:08;;;;;;;23.25;13.10;;;-1.80;64.10;;;;;;4987371;28;20049;-50
2022/12/13 02:55:40;;;;;;;20.67;12.70;;;-1.90;64.10;;;;;;4997275;28;20042;-52
2022/12/13 02:58:13;;;;;;;22.70;12.10;;;-1.90;64.10;;;;;;4999960;28;20085;-53
2022/12/13 03:01:05;;;;;;;22.73;13.07;;;-1.90;64.10;;;;;;4985022;28;20043;-54
2022/12/13 03:04:29;;;;;;;18.75;11.32;;;-1.90;63.80;;;;;;5001321;28;20468;-54
2022/12/13 03:07:15;;;;;;;22.73;11.80;;;-1.90;63.80;;;;;;4992276;28;20181;-54
2022/12/13 03:09:45;;;;;;;19.83;12.55;;;-1.90;64.00;;;;;;4991261;28;20090;-54
2022/12/13 03:15:24;;;;;;;23.60;13.95;;;-1.90;63.90;;;;;;4996804;28;20499;-54
2022/12/13 03:17:59;;;;;;;19.10;11.30;;;-1.90;63.90;;;;;;5010686;28;20145;-54
2022/12/13 03:20:30;;;;;;;22.58;12.13;;;-1.90;64.00;;;;;;4996638;28;20042;-55
2022/12/13 03:22:57;;;;;;;23.67;12.75;;;-2.00;64.00;;;;;;4991453;28;20039;-51
2022/12/13 03:25:29;;;;;;;26.20;14.02;;;-2.00;64.00;;;;;;5002260;28;20336;-54
2022/12/13 03:28:00;;;;;;;24.17;13.15;;;-2.00;63.90;;;;;;5002325;28;20116;-52
2022/12/13 03:30:31;;;;;;;17.45;10.88;;;-2.00;64.00;;;;;;5007464;28;20095;-53
2022/12/13 03:33:01;;;;;;;22.00;14.20;;;-2.00;63.90;;;;;;5000495;28;20054;-50
2022/12/13 03:35:28;;;;;;;20.20;12.07;;;-2.00;63.90;;;;;;4986057;28;20046;-54
2022/12/13 03:38:13;;;;;;;20.38;12.27;;;-2.00;63.90;;;;;;5017156;22;20069;-55
2022/12/13 03:40:51;;;;;;;21.98;12.38;;;-2.00;63.90;;;;;;5004386;28;20038;-53
2022/12/13 03:43:18;;;;;;;19.23;11.73;;;-2.10;63.80;;;;;;5007461;28;20037;-54
2022/12/13 03:45:49;;;;;;;23.13;12.95;;;-2.00;63.90;;;;;;5019647;28;20405;-51
2022/12/13 03:48:16;;;;;;;22.65;13.05;;;-2.00;63.90;;;;;;5020802;28;20034;-53
2022/12/13 03:50:52;;;;;;;21.85;13.30;;;-2.00;64.00;;;;;;5001791;28;20049;-52
2022/12/13 03:53:21;;;;;;;19.67;11.38;;;-2.00;63.90;;;;;;4993044;28;20052;-53
2022/12/13 03:56:02;;;;;;;21.67;12.18;;;-2.00;63.90;;;;;;5018076;28;20076;-53
2022/12/13 03:58:29;;;;;;;25.95;12.77;;;-2.10;63.80;;;;;;4985933;28;20077;-53
2022/12/13 04:01:08;;;;;;;23.50;12.68;;;-2.10;63.80;;;;;;5017750;28;20049;-53
2022/12/13 04:03:39;;;;;;;21.20;12.10;;;-2.10;63.80;;;;;;5010873;28;20048;-54
2022/12/13 04:06:07;;;;;;;23.77;13.15;;;-2.10;63.80;;;;;;5005559;28;20041;-53
2022/12/13 04:08:36;;;;;;;21.10;11.80;;;-2.10;63.80;;;;;;5005014;28;20580;-51
2022/12/13 04:13:52;;;;;;;21.10;12.07;;;-2.10;63.80;;;;;;5007185;28;20046;-54
2022/12/13 04:16:22;;;;;;;19.27;11.25;;;-2.10;63.80;;;;;;4997056;28;20041;-52
2022/12/13 04:18:49;;;;;;;23.88;12.82;;;-2.10;63.90;;;;;;5014875;28;20053;-52
2022/12/13 04:21:20;;;;;;;21.20;11.57;;;-2.10;63.80;;;;;;5010934;28;20049;-49
2022/12/13 04:23:47;;;;;;;19.52;11.52;;;-2.10;63.80;;;;;;4992688;28;20467;-53
2022/12/13 04:26:13;;;;;;;23.25;12.70;;;-2.20;63.80;;;;;;5007313;28;20063;-51
2022/12/13 04:28:40;;;;;;;23.42;13.55;;;-2.20;63.80;;;;;;5000560;28;20050;-52
2022/12/13 04:31:07;;;;;;;22.48;12.40;;;-2.20;63.80;;;;;;5029589;28;20077;-54
2022/12/13 04:33:34;;;;;;;20.98;12.80;;;-2.20;63.80;;;;;;5017438;28;20049;-54
2022/12/13 04:36:03;;;;;;;21.98;13.73;;;-2.20;63.80;;;;;;5012756;28;20116;-52
2022/12/13 04:38:29;;;;;;;19.65;11.88;;;-2.20;63.70;;;;;;5009702;28;20040;-53
2022/12/13 04:41:07;;;;;;;22.20;11.43;;;-2.20;63.70;;;;;;5010513;28;20498;-52
2022/12/13 04:43:34;;;;;;;20.25;10.95;;;-2.20;63.60;;;;;;5005918;28;20049;-53
2022/12/13 04:46:00;;;;;;;18.00;11.35;;;-2.10;63.80;;;;;;5012006;28;20050;-49
2022/12/13 04:48:27;;;;;;;21.33;11.90;;;-2.20;63.70;;;;;;5020762;28;20037;-51
2022/12/13 04:50:56;;;;;;;20.55;11.27;;;-2.20;63.70;;;;;;5019555;28;20042;-51
2022/12/13 04:53:27;;;;;;;18.77;11.50;;;-2.20;63.70;;;;;;4992626;28;20128;-53
2022/12/13 04:55:54;;;;;;;21.40;11.50;;;-2.20;63.70;;;;;;5022126;28;20706;-49
2022/12/13 04:58:21;;;;;;;22.02;12.27;;;-2.20;63.60;;;;;;5009709;28;20113;-53
2022/12/13 05:00:51;;;;;;;18.13;11.30;;;-2.30;63.60;;;;;;5010831;28;20106;-50
2022/12/13 05:03:18;;;;;;;21.58;12.63;;;-2.30;63.60;;;;;;5008004;28;20570;-49
2022/12/13 05:05:45;;;;;;;20.10;10.50;;;-2.30;63.60;;;;;;5018302;28;20045;-50
2022/12/13 05:08:12;;;;;;;23.23;12.30;;;-2.30;63.70;;;;;;5025394;28;20042;-51
2022/12/13 05:10:39;;;;;;;20.25;12.13;;;-2.30;63.70;;;;;;5007141;28;20048;-51
2022/12/13 05:13:08;;;;;;;21.13;11.23;;;-2.30;63.70;;;;;;5004567;28;20092;-50
2022/12/13 05:15:41;;;;;;;19.88;11.02;;;-2.30;63.70;;;;;;5017772;28;20056;-51
2022/12/13 05:18:10;;;;;;;17.95;9.90;;;-2.30;63.70;;;;;;5028832;28;20132;-53
2022/12/13 05:20:38;;;;;;;28.65;13.50;;;-2.30;63.60;;;;;;5018493;28;20426;-52
2022/12/13 05:23:05;;;;;;;20.42;12.07;;;-2.30;63.70;;;;;;5016268;28;20053;-53
2022/12/13 05:25:37;;;;;;;24.17;12.82;;;-2.30;63.70;;;;;;5021024;28;20585;-50
2022/12/13 05:28:04;;;;;;;23.45;12.57;;;-2.30;63.70;;;;;;5015200;28;20061;-55
2022/12/13 05:30:52;;;;;;;21.33;11.35;;;-2.30;63.80;;;;;;5005114;28;20058;-54
2022/12/13 05:33:20;;;;;;;23.63;11.90;;;-2.30;63.70;;;;;;5023953;28;20056;-55
2022/12/13 05:35:47;;;;;;;24.15;12.38;;;-2.30;63.70;;;;;;5025627;28;20051;-55
2022/12/13 05:38:14;;;;;;;26.10;13.60;;;-2.30;63.70;;;;;;5014527;28;20057;-54
2022/12/13 05:40:43;;;;;;;27.52;14.65;;;-2.30;63.80;;;;;;5008435;28;20065;-55
2022/12/13 05:43:10;;;;;;;28.80;13.80;;;-2.30;63.80;;;;;;5013230;28;20041;-55
2022/12/13 05:45:49;;;;;;;25.92;13.48;;;-2.30;63.70;;;;;;5007933;28;20049;-55
2022/12/13 05:48:17;;;;;;;26.38;12.80;;;-2.30;63.70;;;;;;5008712;28;20038;-54
2022/12/13 05:50:50;;;;;;;27.10;15.57;;;-2.40;63.70;;;;;;5011702;28;20041;-50
2022/12/13 05:53:35;;;;;;;26.45;13.02;;;-2.30;63.80;;;;;;5014637;28;20489;-54
2022/12/13 05:56:02;;;;;;;29.88;14.07;;;-2.30;63.80;;;;;;5012760;28;20122;-51
2022/12/13 05:58:29;;;;;;;24.50;13.70;;;-2.30;63.80;;;;;;5006713;28;20475;-53
2022/12/13 06:01:07;;;;;;;25.98;13.38;;;-2.30;63.90;;;;;;5020805;28;20034;-54
2022/12/13 06:03:34;;;;;;;23.00;12.68;;;-2.30;63.80;;;;;;5025079;28;20076;-55
2022/12/13 06:06:02;;;;;;;25.75;12.98;;;-2.40;63.80;;;;;;5032202;28;20049;-54
2022/12/13 06:08:29;;;;;;;23.20;13.05;;;-2.40;63.80;;;;;;5011922;28;20076;-54
2022/12/13 06:10:58;;;;;;;24.70;13.38;;;-2.40;63.80;;;;;;5021052;28;20053;-53
2022/12/13 06:13:39;;;;;;;20.48;13.23;;;-2.40;63.80;;;;;;5002948;28;20593;-54
2022/12/13 06:16:10;;;;;;;25.43;14.07;;;-2.30;63.90;;;;;;5021558;28;20728;-55
2022/12/13 06:18:49;;;;;;;26.73;14.05;;;-2.30;64.00;;;;;;5014313;28;20085;-52
2022/12/13 06:21:16;;;;;;;26.73;15.73;;;-2.30;64.00;;;;;;5006448;28;20088;-54
2022/12/13 06:23:43;;;;;;;25.67;14.65;;;-2.30;64.10;;;;;;5012109;28;20042;-53
2022/12/13 06:26:10;;;;;;;32.80;17.88;;;-2.30;64.20;;;;;;5016175;28;20589;-54
2022/12/13 06:28:36;;;;;;;36.58;19.17;;;-2.30;64.30;;;;;;5011112;28;20510;-50
2022/12/13 06:31:04;;;;;;;33.60;18.35;;;-2.30;64.30;;;;;;5020884;28;20456;-54
2022/12/13 06:33:35;;;;;;;36.38;20.27;;;-2.30;64.40;;;;;;5010878;28;20060;-51
2022/12/13 06:36:03;;;;;;;33.60;20.08;;;-2.30;64.60;;;;;;5016098;28;20045;-53
2022/12/13 06:38:30;;;;;;;30.23;18.38;;;-2.30;64.60;;;;;;5022929;28;20041;-53
2022/12/13 06:41:13;;;;;;;35.22;19.50;;;-2.30;64.60;;;;;;5009411;28;20095;-54
2022/12/13 06:43:46;;;;;;;33.22;17.23;;;-2.20;64.70;;;;;;5005466;28;20049;-55
2022/12/13 06:46:15;;;;;;;35.55;19.73;;;-2.20;64.60;;;;;;5002390;28;20069;-53
2022/12/13 06:48:41;;;;;;;31.60;17.48;;;-2.20;64.60;;;;;;5009999;28;20042;-50
2022/12/13 06:51:09;;;;;;;33.40;16.52;;;-2.20;64.50;;;;;;5010002;28;20053;-54
2022/12/13 06:53:37;;;;;;;30.42;17.20;;;-2.20;64.40;;;;;;5012056;28;20548;-51
2022/12/13 06:56:06;;;;;;;30.70;18.05;;;-2.20;64.40;;;;;;5008663;28;20129;-53
2022/12/13 06:58:34;;;;;;;27.67;16.90;;;-2.20;64.40;;;;;;5006369;28;20045;-55
2022/12/13 07:01:06;;;;;;;33.22;17.33;;;-2.20;64.40;;;;;;5009548;28;20048;-49
2022/12/13 07:03:41;;;;;;;32.33;16.15;;;-2.20;64.40;;;;;;5007076;28;20434;-54
2022/12/13 07:06:16;;;;;;;31.73;17.38;;;-2.20;64.30;;;;;;5009509;28;20073;-52
2022/12/13 07:08:47;;;;;;;30.05;17.63;;;-2.20;64.30;;;;;;5011074;28;20145;-51
2022/12/13 07:11:16;;;;;;;32.08;17.55;;;-2.20;64.20;;;;;;5010057;28;20065;-54
2022/12/13 07:13:43;;;;;;;34.38;17.50;;;-2.20;64.20;;;;;;5008759;28;20045;-53
2022/12/13 07:16:11;;;;;;;35.33;18.23;;;-2.20;64.10;;;;;;5010084;28;20037;-52
2022/12/13 07:18:38;;;;;;;31.02;17.70;;;-2.30;64.10;;;;;;5012963;28;20125;-53
2022/12/13 07:21:07;;;;;;;35.03;20.27;;;-2.20;64.10;;;;;;5021604;28;20046;-55
2022/12/13 07:23:47;;;;;;;;;;;-2.30;64.10;;;;;;5009060;28;20042;-51
2022/12/13 07:26:22;;;;;;;31.10;16.80;;;-2.20;64.00;;;;;;5009015;28;19921;-53
2022/12/13 07:28:48;;;;;;;31.27;17.23;;;-2.20;64.20;;;;;;5011367;28;20054;-55
2022/12/13 07:31:22;;;;;;;34.65;18.15;;;-2.20;65.00;;;;;;5010921;28;20042;-53
2022/12/13 07:33:49;;;;;;;34.58;18.50;;;-2.20;64.70;;;;;;5004315;28;20548;-53
2022/12/13 07:36:21;;;;;;;34.55;19.35;;;-2.20;65.00;;;;;;4992565;28;20395;-54
2022/12/13 07:38:53;;;;;;;36.67;19.25;;;-2.10;65.40;;;;;;5009418;28;20129;-55
2022/12/13 07:41:21;;;;;;;;;;;-2.10;65.60;;;;;;5007831;28;20046;-54
2022/12/13 07:43:51;;;;;;;38.05;18.75;;;-2.00;65.90;;;;;;5008587;28;19956;-53
2022/12/13 07:46:22;;;;;;;38.92;21.92;;;-2.00;65.50;;;;;;5001867;28;20092;-55
2022/12/13 07:49:03;;;;;;;42.30;20.30;;;-2.00;65.60;;;;;;5007130;28;20061;-55
2022/12/13 07:51:33;;;;;;;43.33;20.58;;;-1.90;65.60;;;;;;5015843;28;20042;-55
2022/12/13 07:54:00;;;;;;;36.72;19.30;;;-1.90;65.60;;;;;;5007134;28;20410;-54
2022/12/13 07:56:34;;;;;;;38.72;20.25;;;-1.90;65.60;;;;;;5006113;28;20133;-53
2022/12/13 07:59:00;;;;;;;37.13;20.90;;;-1.80;65.60;;;;;;5018079;28;20033;-55
2022/12/13 08:01:31;;;;;;;41.92;21.08;;;-1.80;65.50;;;;;;5008417;28;20594;-55
2022/12/13 08:03:57;;;;;;;40.95;23.08;;;-1.80;65.40;;;;;;5008807;28;20054;-54
2022/12/13 08:06:24;;;;;;;36.95;20.80;;;-1.80;65.40;;;;;;5008587;28;20038;-55
2022/12/13 08:08:55;;;;;;;36.35;20.20;;;-1.80;65.50;;;;;;5007068;28;20046;-52
2022/12/13 08:11:22;;;;;;;42.60;22.58;;;-1.70;65.50;;;;;;5004731;28;20137;-53
2022/12/13 08:13:48;;;;;;;38.10;19.88;;;-1.70;65.50;;;;;;5010858;28;20520;-54
2022/12/13 08:16:17;;;;;;;41.13;23.73;;;-1.70;65.50;;;;;;5017318;28;20070;-54
2022/12/13 08:18:59;;;;;;;38.38;21.13;;;-1.70;65.60;;;;;;5008494;28;20529;-54
2022/12/13 08:21:36;;;;;;;40.05;22.33;;;-1.70;65.60;;;;;;5002864;28;20406;-53
2022/12/13 08:24:27;;;;;;;42.35;22.35;;;-1.70;65.60;;;;;;4999469;28;20129;-54
2022/12/13 08:26:56;;;;;;;47.92;22.98;;;-1.60;65.70;;;;;;5025675;28;20054;-51
2022/12/13 08:29:22;;;;;;;40.05;20.95;;;-1.60;65.70;;;;;;5012668;28;20435;-55
2022/12/13 08:32:07;;;;;;;37.42;20.20;;;-1.60;65.80;;;;;;5003145;28;20049;-52
2022/12/13 08:34:35;;;;;;;42.38;23.27;;;-1.50;65.90;;;;;;5009606;28;20391;-55
2022/12/13 08:37:02;;;;;;;51.45;28.48;;;-1.50;65.90;;;;;;5017587;28;20046;-52
2022/12/13 08:39:43;;;;;;;43.25;22.90;;;-1.50;66.60;;;;;;5065712;28;20397;-52
2022/12/13 08:42:23;;;;;;;44.53;23.45;;;-1.40;66.10;;;;;;5046348;28;20032;-54
2022/12/13 08:44:52;;;;;;;46.03;24.90;;;-1.40;66.30;;;;;;5062262;28;20029;-54
2022/12/13 08:47:20;;;;;;;41.80;24.67;;;-1.40;66.30;;;;;;5057939;28;20040;-53
2022/12/13 08:49:54;;;;;;;;;;;-1.30;66.40;;;;;;5046678;28;20626;-55
2022/12/13 08:52:28;;;;;;;33.63;17.92;;;-1.30;66.90;;;;;;5052630;28;19921;-55
2022/12/13 08:54:55;;;;;;;38.60;22.20;;;-1.20;66.30;;;;;;5053973;28;20045;-53
2022/12/13 08:57:21;;;;;;;40.28;20.15;;;-1.20;66.40;;;;;;5051350;28;20394;-55
2022/12/13 08:59:48;;;;;;;38.75;19.75;;;-1.10;66.80;;;;;;5049295;28;20382;-52
2022/12/13 09:02:15;;;;;;;39.72;22.02;;;-1.10;67.00;;;;;;5053886;28;20063;-50
2022/12/13 09:04:43;;;;;;;44.45;23.85;;;-1.10;67.20;;;;;;5045141;28;20045;-54
2022/12/13 09:07:10;;;;;;;35.28;20.58;;;-1.00;67.30;;;;;;5048120;28;20037;-52
2022/12/13 09:09:36;;;;;;;34.10;20.77;;;-0.90;67.50;;;;;;5046305;28;20076;-54
2022/12/13 09:12:04;;;;;;;34.80;19.42;;;-0.90;67.60;;;;;;5035525;28;20061;-53
2022/12/13 09:14:51;;;;;;;33.90;18.13;;;-0.80;67.80;;;;;;5049266;28;20041;-58
2022/12/13 09:17:29;;;;;;;32.38;17.63;;;-0.80;67.80;;;;;;5060294;28;20041;-55
2022/12/13 09:20:04;;;;;;;31.58;18.40;;;-0.70;67.90;;;;;;5051999;28;20039;-55
2022/12/13 09:22:53;;;;;;;32.50;17.75;;;-0.60;67.90;;;;;;5047097;28;20655;-54
2022/12/13 09:25:28;;;;;;;29.50;16.98;;;-0.50;68.00;;;;;;5053211;28;20411;-51
2022/12/13 09:28:02;;;;;;;32.50;17.85;;;-0.50;68.10;;;;;;5061553;28;20091;-53
2022/12/13 09:30:33;;;;;;;32.00;18.38;;;-0.40;68.20;;;;;;5044711;28;20049;-51
2022/12/13 09:33:02;;;;;;;36.28;18.98;;;-0.30;68.20;;;;;;5060199;28;20048;-52
2022/12/13 09:35:50;;;;;;;38.03;19.27;;;-0.30;68.10;;;;;;5060569;28;20078;-52
2022/12/13 09:38:18;;;;;;;33.17;18.42;;;-0.20;68.10;;;;;;5053088;28;20033;-51
2022/12/13 09:40:48;;;;;;;33.20;17.85;;;-0.10;68.10;;;;;;5049935;28;20044;-53
2022/12/13 09:43:31;;;;;;;33.25;18.95;;;-0.10;68.10;;;;;;5060347;28;20134;-54
2022/12/13 09:46:26;;;;;;;27.75;17.40;;;0.00;68.30;;;;;;5059599;28;20116;-51
2022/12/13 09:49:03;;;;;;;32.35;18.20;;;0.00;68.20;;;;;;5064879;28;20063;-55
2022/12/13 09:51:39;;;;;;;34.85;18.60;;;0.10;68.10;;;;;;5034451;28;20038;-54
2022/12/13 09:54:21;;;;;;;31.70;17.92;;;0.10;68.00;;;;;;5041597;28;20067;-53
2022/12/13 09:56:49;;;;;;;37.40;17.60;;;0.10;68.10;;;;;;5025695;28;20072;-54
2022/12/13 09:59:24;;;;;;;32.78;17.85;;;0.20;68.10;;;;;;5032476;28;20695;-53
2022/12/13 10:01:50;;;;;;;35.17;19.15;;;0.20;67.90;;;;;;4990139;28;20054;-54
2022/12/13 10:04:21;;;;;;;33.97;19.70;;;0.20;67.90;;;;;;4993752;28;20049;-53
2022/12/13 10:06:52;;;;;;;33.95;17.90;;;0.30;68.00;;;;;;4992673;28;20056;-54
2022/12/13 10:09:19;;;;;;;35.55;19.55;;;0.30;68.00;;;;;;4982297;28;20400;-50
2022/12/13 10:11:52;;;;;;;34.58;18.63;;;0.30;68.00;;;;;;4995247;28;20756;-50
2022/12/13 10:14:39;;;;;;;33.90;19.15;;;0.30;67.90;;;;;;4993479;28;20070;-56
2022/12/13 10:17:08;;;;;;;34.47;18.83;;;0.40;68.30;;;;;;5003067;28;20056;-52
2022/12/13 10:19:44;;;;;;;32.00;18.38;;;0.40;68.00;;;;;;4999093;28;20046;-53
2022/12/13 10:22:14;;;;;;;28.90;17.98;;;0.40;68.20;;;;;;4984561;28;20037;-53
2022/12/13 10:25:02;;;;;;;35.30;16.35;;;0.40;68.10;;;;;;4999475;28;20503;-53
2022/12/13 10:27:32;;;;;;;35.67;19.25;;;0.40;68.30;;;;;;4986049;28;20539;-50
2022/12/13 10:30:05;;;;;;;34.33;19.52;;;0.40;68.10;;;;;;4990026;28;20053;-53
2022/12/13 10:32:53;;;;;;;34.30;18.38;;;0.40;68.30;;;;;;4989519;28;20133;-55
2022/12/13 10:35:38;;;;;;;39.50;24.92;;;0.50;68.50;;;;;;4999343;28;20042;-54
2022/12/13 10:38:07;;;;;;;37.40;18.92;;;0.50;68.50;;;;;;4994518;28;20093;-56
2022/12/13 10:40:39;;;;;;;29.27;17.00;;;0.60;68.50;;;;;;4991650;28;20081;-50
2022/12/13 10:43:14;;;;;;;33.22;18.25;;;0.60;68.80;;;;;;5003110;28;20050;-49
2022/12/13 10:45:43;;;;;;;32.28;17.05;;;0.60;69.60;;;;;;5010646;28;20414;-52
2022/12/13 10:48:21;;;;;;;29.63;16.75;;;0.70;69.00;;;;;;4995835;28;20070;-50
2022/12/13 10:51:00;;;;;;;32.47;16.90;;;0.70;69.70;;;;;;4989199;28;20046;-54
2022/12/13 10:53:35;;;;;;;29.85;17.05;;;0.80;69.10;;;;;;4993370;28;20042;-55
2022/12/13 10:56:02;;;;;;;32.75;17.02;;;0.80;68.70;;;;;;4990254;28;20044;-53
2022/12/13 10:58:41;;;;;;;31.40;16.75;;;0.90;68.60;;;;;;4985947;28;20042;-57
2022/12/13 11:01:29;;;;;;;34.08;18.52;;;0.90;68.70;;;;;;4998677;28;20470;-54
2022/12/13 11:03:59;;;;;;;35.63;18.58;;;1.00;68.50;;;;;;4994261;28;20050;-55
2022/12/13 11:06:44;;;;;;;29.70;18.02;;;1.10;68.40;;;;;;4988917;28;20047;-54
2022/12/13 11:09:31;;;;;;;30.65;17.13;;;1.00;68.50;;;;;;4992953;28;20409;-54
2022/12/13 11:12:14;;;;;;;34.25;17.13;;;1.00;68.70;;;;;;5004592;28;20443;-56
2022/12/13 11:14:51;;;;;;;33.17;17.70;;;1.00;68.50;;;;;;4990402;28;20122;-55
2022/12/13 11:17:22;;;;;;;30.98;17.38;;;1.00;68.50;;;;;;4989746;28;20053;-55
2022/12/13 11:19:53;;;;;;;26.25;16.55;;;1.10;68.60;;;;;;4999686;28;20500;-56
2022/12/13 11:22:36;;;;;;;29.73;16.73;;;1.10;68.60;;;;;;5007217;28;20045;-56
2022/12/13 11:25:08;;;;;;;29.52;17.02;;;1.10;68.80;;;;;;4989082;28;20076;-52
2022/12/13 11:27:35;;;;;;;;;;;1.20;68.80;;;;;;4984428;28;20418;-51
2022/12/13 11:30:16;;;;;;;30.17;15.00;;;1.20;69.30;;;;;;4999944;28;19928;-54
2022/12/13 11:33:06;;;;;;;27.45;16.23;;;1.30;68.60;;;;;;4995445;28;20042;-54
2022/12/13 11:35:55;;;;;;;32.38;16.95;;;1.30;68.60;;;;;;4978295;28;20141;-54
2022/12/13 11:38:31;;;;;;;29.02;15.95;;;1.30;68.60;;;;;;4996296;28;20046;-54
2022/12/13 11:41:21;;;;;;;32.97;16.48;;;1.30;68.50;;;;;;4989437;28;20042;-55
2022/12/13 11:44:10;;;;;;;32.65;16.63;;;1.40;68.60;;;;;;4987891;28;20782;-54
2022/12/13 11:46:50;;;;;;;29.45;17.10;;;1.40;68.50;;;;;;4991888;28;20045;-54
2022/12/13 11:49:27;;;;;;;37.08;17.65;;;1.50;68.60;;;;;;4998503;28;20050;-55
2022/12/13 11:52:15;;;;;;;34.95;18.55;;;1.50;68.50;;;;;;4981878;28;20086;-55
2022/12/13 11:54:59;;;;;;;32.47;17.17;;;1.60;68.50;;;;;;4985843;28;20069;-55
2022/12/13 11:57:29;;;;;;;32.88;17.60;;;1.60;68.50;;;;;;4983929;28;20053;-54
2022/12/13 12:00:17;;;;;;;32.65;18.55;;;1.60;68.90;;;;;;4990369;28;20049;-56
2022/12/13 12:03:25;;;;;;;30.00;16.10;;;1.70;68.20;;;;;;4989907;28;20038;-57
2022/12/13 12:06:02;;;;;;;28.13;16.13;;;1.70;68.10;;;;;;4991828;28;20511;-53
2022/12/13 12:08:38;;;;;;;30.30;16.77;;;1.70;67.90;;;;;;5001946;28;20045;-55
2022/12/13 12:11:15;;;;;;;28.15;16.27;;;1.80;67.80;;;;;;5006874;28;20050;-56
2022/12/13 12:13:55;;;;;;;29.88;17.00;;;1.80;67.80;;;;;;4991640;28;20039;-54
2022/12/13 12:16:32;;;;;;;30.48;16.60;;;1.80;67.80;;;;;;4995420;28;20136;-52
2022/12/13 12:18:59;;;;;;;28.88;16.73;;;1.90;68.50;;;;;;5007785;28;20029;-54
2022/12/13 12:21:37;;;;;;;27.17;15.93;;;1.80;67.70;;;;;;4997360;28;20559;-55
2022/12/13 12:24:52;;;;;;;26.50;15.48;;;1.80;67.70;;;;;;4991330;28;20558;-55
2022/12/13 12:27:27;;;;;;;25.83;15.07;;;1.90;67.90;;;;;;4990544;28;20042;-53
2022/12/13 12:30:07;;;;;;;28.30;15.90;;;1.90;67.70;;;;;;4990527;28;20081;-54
2022/12/13 12:32:56;;;;;;;30.25;17.75;;;1.90;67.60;;;;;;4986444;28;20400;-54
2022/12/13 12:35:52;;;;;;;33.75;16.98;;;1.90;67.50;;;;;;4997322;28;20046;-53
2022/12/13 12:38:21;;;;;;;26.23;14.02;;;1.90;67.40;;;;;;4989830;28;20050;-54
2022/12/13 12:41:01;;;;;;;30.60;16.45;;;1.90;67.40;;;;;;4990139;28;20395;-56
2022/12/13 12:43:48;;;;;;;27.13;16.42;;;2.00;67.50;;;;;;4991988;28;20053;-54
2022/12/13 12:46:24;;;;;;;30.00;15.85;;;2.00;67.60;;;;;;4997197;28;20046;-54
2022/12/13 12:49:28;;;;;;;28.10;16.85;;;2.00;67.70;;;;;;4990433;28;20054;-54
2022/12/13 12:52:17;;;;;;;24.70;14.45;;;2.10;67.60;;;;;;4980529;28;20074;-52
2022/12/13 12:55:02;;;;;;;22.23;13.75;;;2.20;67.60;;;;;;4997056;28;20058;-52
2022/12/13 12:57:56;;;;;;;25.88;14.75;;;2.20;67.60;;;;;;4983396;28;20042;-54
2022/12/13 13:00:47;;;;;;;27.38;14.80;;;2.30;67.40;;;;;;4979633;28;20038;-56
2022/12/13 13:03:23;;;;;;;24.73;13.65;;;2.40;67.40;;;;;;4998504;28;20073;-54
2022/12/13 13:06:13;;;;;;;32.75;16.65;;;2.50;67.20;;;;;;4991172;28;20085;-56
2022/12/13 13:08:55;;;;;;;28.60;14.88;;;2.50;67.10;;;;;;4987050;28;20500;-54
2022/12/13 13:11:24;;;;;;;27.65;15.70;;;2.60;66.90;;;;;;5003070;28;20042;-55